createdAt,value
2022-08-22T11:54:52.696Z,6.90
2022-08-22T12:00:32.510Z,7.72
2022-08-22T12:05:42.854Z,6.68
2022-08-22T12:10:54.448Z,6.18
2022-08-22T12:16:07.142Z,6.35
2022-08-22T12:21:39.083Z,6.67
2022-08-22T12:26:55.241Z,6.90
2022-08-22T12:32:43.756Z,7.97
2022-08-22T12:37:53.339Z,11.50
2022-08-22T12:43:08.034Z,6.88
2022-08-22T12:48:26.753Z,7.07
2022-08-22T12:53:55.919Z,5.90
2022-08-22T12:59:17.917Z,5.80
2022-08-22T13:04:33.545Z,5.88
2022-08-22T13:09:43.154Z,6.25
2022-08-22T13:14:51.495Z,7.70
2022-08-22T13:20:01.060Z,7.90
2022-08-22T13:25:08.641Z,7.35
2022-08-22T13:30:20.213Z,7.40
2022-08-22T13:35:28.256Z,8.02
2022-08-22T13:40:34.800Z,7.60
2022-08-22T13:45:44.579Z,7.47
2022-08-22T13:51:13.843Z,7.72
2022-08-22T13:56:21.598Z,6.72
2022-08-22T14:01:34.632Z,7.00
2022-08-22T14:06:44.005Z,6.43
2022-08-22T14:11:50.430Z,6.22
2022-08-22T14:16:57.347Z,6.25
2022-08-22T14:22:03.319Z,5.50
2022-08-22T14:27:09.840Z,6.10
2022-08-22T14:32:35.431Z,6.00
2022-08-22T14:37:42.826Z,5.80
2022-08-22T14:42:49.796Z,5.90
2022-08-22T14:48:14.243Z,5.97
2022-08-22T14:53:26.826Z,6.90
2022-08-22T14:58:47.737Z,7.35
2022-08-22T15:03:57.741Z,7.70
2022-08-22T15:09:08.029Z,6.70
2022-08-22T15:14:16.138Z,6.53
2022-08-22T15:19:27.381Z,7.18
2022-08-22T15:24:31.884Z,8.35
2022-08-22T15:29:46.947Z,8.03
2022-08-22T15:34:53.509Z,8.55
2022-08-22T15:40:08.157Z,8.98
2022-08-22T15:45:23.435Z,8.75
2022-08-22T15:50:35.715Z,7.32
2022-08-22T15:56:10.321Z,5.97
2022-08-22T16:01:20.072Z,7.00
2022-08-22T16:06:48.815Z,5.65
2022-08-22T16:11:55.130Z,5.45
2022-08-22T16:17:01.905Z,4.72
2022-08-22T16:22:10.452Z,4.70
2022-08-22T16:27:21.041Z,5.10
2022-08-22T16:32:27.806Z,4.60
2022-08-22T16:37:51.087Z,5.68
2022-08-22T16:43:14.219Z,6.10
2022-08-22T16:48:27.040Z,4.80
2022-08-22T16:54:10.344Z,5.13
2022-08-22T16:59:38.228Z,5.22
2022-08-22T17:04:53.086Z,4.63
2022-08-22T17:10:12.476Z,5.05
2022-08-22T17:15:28.423Z,4.85
2022-08-22T17:20:38.535Z,5.10
2022-08-22T17:25:55.942Z,5.15
2022-08-22T17:31:03.143Z,5.88
2022-08-22T17:36:27.171Z,4.93
2022-08-22T17:41:39.851Z,5.25
2022-08-22T17:46:48.342Z,4.90
2022-08-22T17:51:57.018Z,4.82
2022-08-22T17:57:06.407Z,5.45
2022-08-22T18:02:16.436Z,4.50
2022-08-22T18:07:28.498Z,4.40
2022-08-22T18:12:40.971Z,4.68
2022-08-22T18:17:50.486Z,4.68
2022-08-22T18:22:58.304Z,5.03
2022-08-22T18:28:08.330Z,5.00
2022-08-22T18:33:19.793Z,4.45
2022-08-22T18:38:29.594Z,4.45
2022-08-22T18:43:39.955Z,4.80
2022-08-22T18:49:05.426Z,4.53
2022-08-22T18:54:33.506Z,4.07
2022-08-22T19:00:04.270Z,4.90
2022-08-22T19:05:30.485Z,4.70
2022-08-22T19:16:16.831Z,5.03
2022-08-22T19:21:41.567Z,4.90
2022-08-22T19:26:47.933Z,4.40
2022-08-22T19:31:54.747Z,4.90
2022-08-22T19:37:30.920Z,4.70
2022-08-22T19:42:39.891Z,4.68
2022-08-22T19:47:54.698Z,5.28
2022-08-22T19:53:28.594Z,4.70
2022-08-22T19:58:37.226Z,4.72
2022-08-22T20:04:00.275Z,5.57
2022-08-22T20:09:19.030Z,5.43
2022-08-22T20:14:30.741Z,5.00
2022-08-22T20:20:16.482Z,4.32
2022-08-22T20:25:41.535Z,3.90
2022-08-22T20:30:41.270Z,4.25
2022-08-22T20:35:53.297Z,4.75
2022-08-22T20:41:03.516Z,4.90
2022-08-22T20:46:33.479Z,4.40
2022-08-22T20:51:38.909Z,4.03
2022-08-22T20:56:52.845Z,4.35
2022-08-22T21:02:04.442Z,3.90
2022-08-22T21:07:09.882Z,4.47
2022-08-22T21:12:13.970Z,4.50
2022-08-22T21:17:39.551Z,4.72
2022-08-22T21:22:45.071Z,4.80
2022-08-22T21:27:49.762Z,4.65
2022-08-22T21:32:56.463Z,4.75
2022-08-22T21:38:02.731Z,4.32
2022-08-22T21:43:09.179Z,4.72
2022-08-22T21:48:31.168Z,4.85
2022-08-22T21:53:36.507Z,4.47
2022-08-22T21:58:43.447Z,4.70
2022-08-22T22:03:47.303Z,4.18
2022-08-22T22:08:53.026Z,4.38
2022-08-22T22:13:57.077Z,4.15
2022-08-22T22:19:01.314Z,4.60
2022-08-22T22:24:07.383Z,4.15
2022-08-22T22:29:11.455Z,4.68
2022-08-22T22:34:15.486Z,4.10
2022-08-22T22:39:20.911Z,4.88
2022-08-22T22:44:26.358Z,4.10
2022-08-22T22:49:31.138Z,4.38
2022-08-22T22:54:36.525Z,4.53
2022-08-22T22:59:40.491Z,4.40
2022-08-22T23:04:47.203Z,4.28
2022-08-22T23:09:53.104Z,5.03
2022-08-22T23:14:57.613Z,4.10
2022-08-22T23:20:01.847Z,4.47
2022-08-22T23:25:07.784Z,5.45
2022-08-22T23:30:13.168Z,5.75
2022-08-22T23:35:17.178Z,5.45
2022-08-22T23:40:22.773Z,5.78
2022-08-22T23:45:26.865Z,5.07
2022-08-22T23:50:30.863Z,5.03
2022-08-22T23:55:36.272Z,5.13
